Terminal Aerodrome Forecast
Issued by NWS

Home | Current Version | Previous Version | Text Only | Print | Product List | Glossary Off
Versions: 1 2 3 4 5 6 7 8 9 10 11 12 13 14 15

000
FTUS43 KTOP 061720
TAFFOE
TAF
KFOE 061720Z 0618/0718 21014G24KT P6SM SCT040 BKN080
     FM062000 23012KT P6SM VCTS BKN040CB
      TEMPO 0621/0623 4SM TSRA OVC025CB
     FM070000 34012G20KT 5SM -SHRA VCTS OVC015CB
     FM070500 02012G20KT 5SM -SHRA BR OVC015
     FM071300 02012KT 6SM BR SCT006 BKN015=

USA.gov is the U.S. government's official web portal to all federal, state and local government web resources and services.